Time;durP1;ratioP1;P1;durP2;ratioP2;P2;SDS_P1;SDS_P2;PMS_P1;PMS_P2;Temp;Humidity;BMP_temperature;BMP_pressure;BME280_temperature;BME280_humidity;BME280_pressure;Samples;Min_cycle;Max_cycle;Signal;HPM_P1;HPM_P2
2021/04/23 00:00:51;;;;;;;14.93;6.30;;;6.60;39.80;;;;;;5014646;28;20405;-77
2021/04/23 00:03:22;;;;;;;12.55;5.78;;;6.60;40.90;;;;;;5015672;28;20377;-75
2021/04/23 00:05:50;;;;;;;15.60;6.60;;;6.50;40.10;;;;;;5013220;28;20837;-76
2021/04/23 00:08:18;;;;;;;10.70;5.75;;;6.50;40.70;;;;;;5013234;28;20928;-75
2021/04/23 00:10:44;;;;;;;16.50;6.93;;;6.50;41.90;;;;;;5013179;28;20408;-76
2021/04/23 00:13:11;;;;;;;15.35;6.07;;;6.50;42.40;;;;;;5011711;28;20381;-76
2021/04/23 00:15:37;;;;;;;14.27;6.20;;;6.40;42.60;;;;;;5012815;28;20546;-75
2021/04/23 00:18:03;;;;;;;17.00;6.65;;;6.40;42.20;;;;;;5011793;28;20827;-76
2021/04/23 00:20:29;;;;;;;17.08;6.90;;;6.40;42.70;;;;;;5011804;28;20526;-76
2021/04/23 00:23:03;;;;;;;14.83;6.80;;;6.40;43.20;;;;;;5011496;28;20389;-75
2021/04/23 00:25:29;;;;;;;21.35;7.25;;;6.30;44.80;;;;;;5011411;28;20417;-76
2021/04/23 00:27:57;;;;;;;14.27;6.90;;;6.30;43.20;;;;;;5012392;28;20726;-75
2021/04/23 00:30:26;;;;;;;16.38;6.72;;;6.40;43.90;;;;;;5015132;28;20398;-76
2021/04/23 00:32:55;;;;;;;20.67;6.50;;;6.30;43.20;;;;;;5016451;28;20392;-74
2021/04/23 00:35:30;;;;;;;19.50;6.47;;;6.20;45.20;;;;;;5016924;28;20394;-76
2021/04/23 00:37:57;;;;;;;23.02;7.05;;;6.10;46.40;;;;;;5019323;28;20869;-75
2021/04/23 00:40:29;;;;;;;15.63;7.45;;;5.70;49.20;;;;;;5019070;28;20412;-75
2021/04/23 00:42:55;;;;;;;14.95;7.30;;;5.70;52.10;;;;;;5017357;28;20384;-75
2021/04/23 00:45:24;;;;;;;15.18;6.78;;;5.60;52.70;;;;;;5027981;28;20381;-74
2021/04/23 00:47:56;;;;;;;17.05;8.10;;;5.50;53.50;;;;;;5019150;28;20420;-76
2021/04/23 00:50:40;;;;;;;12.82;6.85;;;5.40;55.50;;;;;;5017377;28;20387;-76
2021/04/23 00:53:12;;;;;;;21.30;7.70;;;5.40;58.20;;;;;;5016883;28;20873;-77
2021/04/23 00:55:38;;;;;;;20.33;7.95;;;5.30;55.60;;;;;;5023254;28;20463;-77
2021/04/23 00:58:09;;;;;;;14.90;7.60;;;5.30;57.40;;;;;;5017477;28;20475;-76
2021/04/23 01:00:35;;;;;;;16.30;7.10;;;5.40;56.50;;;;;;5015106;28;20438;-76
2021/04/23 01:03:00;;;;;;;24.67;7.43;;;5.40;57.50;;;;;;5017596;28;20482;-75
2021/04/23 01:05:34;;;;;;;19.93;7.50;;;5.50;56.30;;;;;;5022418;28;20481;-76
2021/04/23 01:08:00;;;;;;;16.10;7.50;;;5.60;53.60;;;;;;5023210;28;20389;-77
2021/04/23 01:10:27;;;;;;;20.85;7.50;;;5.30;55.10;;;;;;5032872;28;20758;-76
2021/04/23 01:12:53;;;;;;;15.40;7.82;;;5.30;56.50;;;;;;5011194;28;20396;-76
2021/04/23 01:15:19;;;;;;;18.27;8.00;;;5.20;56.50;;;;;;5028660;28;20397;-76
2021/04/23 01:17:45;;;;;;;18.17;7.68;;;5.10;59.90;;;;;;5028340;28;20397;-76
2021/04/23 01:20:12;;;;;;;20.83;8.03;;;5.10;59.90;;;;;;5011264;28;20481;-76
2021/04/23 01:22:38;;;;;;;14.83;7.40;;;5.10;60.50;;;;;;5010927;28;20411;-74
2021/04/23 01:25:05;;;;;;;17.88;7.60;;;5.00;60.00;;;;;;5011993;28;20447;-76
2021/04/23 01:27:30;;;;;;;19.15;7.93;;;4.90;59.60;;;;;;5027088;28;20405;-76
2021/04/23 01:29:56;;;;;;;13.77;7.75;;;4.80;62.30;;;;;;5010779;28;20896;-76
2021/04/23 01:32:22;;;;;;;16.75;8.00;;;4.80;62.60;;;;;;5011332;28;20384;-76
2021/04/23 01:34:48;;;;;;;17.23;8.17;;;4.80;65.20;;;;;;5010543;28;20447;-76
2021/04/23 01:37:14;;;;;;;20.92;7.97;;;4.90;65.80;;;;;;5017022;28;20389;-76
2021/04/23 01:39:41;;;;;;;16.43;7.90;;;5.00;62.20;;;;;;5018231;28;20818;-77
2021/04/23 01:42:09;;;;;;;21.42;7.82;;;4.90;60.80;;;;;;5017244;28;20396;-76
2021/04/23 01:44:35;;;;;;;18.20;7.93;;;4.80;63.50;;;;;;5019175;28;20388;-76
2021/04/23 01:47:02;;;;;;;19.97;8.37;;;5.00;62.30;;;;;;5019299;28;20409;-76
2021/04/23 01:49:28;;;;;;;22.30;8.40;;;4.90;62.20;;;;;;5018204;28;20385;-76
2021/04/23 01:52:04;;;;;;;15.60;6.83;;;5.20;57.90;;;;;;5016976;28;20393;-77
2021/04/23 01:54:30;;;;;;;25.65;7.88;;;5.10;58.10;;;;;;5016500;28;20906;-76
2021/04/23 01:56:56;;;;;;;25.27;8.43;;;5.10;58.30;;;;;;5018367;28;20389;-76
2021/04/23 01:59:23;;;;;;;16.33;7.85;;;5.10;60.80;;;;;;5017279;28;20392;-76
2021/04/23 02:01:49;;;;;;;17.02;7.65;;;5.20;57.70;;;;;;5018244;28;20405;-76
2021/04/23 02:04:16;;;;;;;16.95;7.50;;;5.30;55.90;;;;;;5017458;28;20377;-75
2021/04/23 02:06:44;;;;;;;20.25;8.40;;;5.40;55.70;;;;;;5019477;28;20404;-78
2021/04/23 02:09:10;;;;;;;19.10;8.10;;;5.30;57.10;;;;;;5019607;28;20456;-77
2021/04/23 02:11:45;;;;;;;19.80;8.93;;;5.10;59.20;;;;;;5026438;28;20449;-76
2021/04/23 02:14:12;;;;;;;18.15;8.00;;;5.10;61.90;;;;;;5005152;28;20473;-78
2021/04/23 02:16:38;;;;;;;21.97;8.40;;;5.10;58.60;;;;;;5000379;28;20394;-77
2021/04/23 02:19:06;;;;;;;22.02;8.90;;;5.20;57.60;;;;;;5015023;28;20431;-78
2021/04/23 02:21:32;;;;;;;18.98;8.68;;;5.20;58.30;;;;;;5020263;28;20389;-78
2021/04/23 02:23:57;;;;;;;18.70;8.45;;;5.00;59.60;;;;;;5021839;28;20416;-77
2021/04/23 02:26:23;;;;;;;22.67;8.38;;;4.90;60.30;;;;;;5022509;28;20420;-78
2021/04/23 02:28:51;;;;;;;17.20;9.10;;;4.80;62.70;;;;;;5019847;28;20416;-77
2021/04/23 02:31:28;;;;;;;24.95;8.55;;;4.50;64.40;;;;;;5018744;28;20396;-78
2021/04/23 02:33:57;;;;;;;21.07;8.77;;;4.30;67.50;;;;;;5019451;28;20455;-77
2021/04/23 02:36:23;;;;;;;23.33;8.70;;;4.20;71.00;;;;;;5015954;28;20392;-78
2021/04/23 02:38:49;;;;;;;17.35;8.70;;;4.40;68.70;;;;;;5018690;28;20400;-77
2021/04/23 02:41:16;;;;;;;16.73;8.77;;;4.70;66.00;;;;;;5019115;28;20389;-78
2021/04/23 02:43:46;;;;;;;20.05;8.88;;;4.80;63.80;;;;;;5021298;28;20431;-78
2021/04/23 02:46:13;;;;;;;17.88;8.10;;;4.90;61.10;;;;;;5020297;28;20447;-76
2021/04/23 02:48:40;;;;;;;19.02;8.93;;;4.90;59.70;;;;;;5020585;28;20377;-77
2021/04/23 02:51:14;;;;;;;23.55;8.13;;;4.90;58.90;;;;;;5021853;28;20400;-77
2021/04/23 02:53:40;;;;;;;23.50;9.02;;;4.90;58.40;;;;;;5020534;28;20393;-77
2021/04/23 02:56:07;;;;;;;26.45;9.38;;;4.90;57.90;;;;;;5017461;28;20401;-78
2021/04/23 02:58:33;;;;;;;21.70;8.93;;;4.80;59.50;;;;;;5014900;28;20801;-77
2021/04/23 03:01:03;;;;;;;25.50;8.48;;;4.60;61.20;;;;;;5014798;28;20487;-76
2021/04/23 03:03:29;;;;;;;22.13;9.50;;;4.50;66.00;;;;;;5012823;28;20389;-77
2021/04/23 03:05:56;;;;;;;22.67;9.20;;;4.30;68.40;;;;;;5013913;28;20492;-76
2021/04/23 03:08:22;;;;;;;18.33;8.80;;;4.50;65.70;;;;;;5015799;28;20393;-76
2021/04/23 03:11:11;;;;;;;17.35;9.02;;;4.60;63.80;;;;;;5015765;28;20442;-76
2021/04/23 03:13:38;;;;;;;22.42;9.68;;;4.60;64.20;;;;;;5013237;28;20425;-76
2021/04/23 03:16:05;;;;;;;24.42;9.10;;;4.60;63.80;;;;;;5013479;28;20868;-77
2021/04/23 03:18:32;;;;;;;20.42;9.00;;;4.60;63.20;;;;;;5014192;28;20409;-77
2021/04/23 03:21:01;;;;;;;22.90;9.68;;;4.40;65.00;;;;;;5017611;28;20758;-77
2021/04/23 03:23:27;;;;;;;24.42;10.07;;;4.10;66.60;;;;;;5019668;28;20385;-76
2021/04/23 03:25:54;;;;;;;18.65;9.40;;;4.10;71.90;;;;;;5028432;28;20409;-77
2021/04/23 03:28:21;;;;;;;21.63;10.25;;;4.20;69.60;;;;;;5026114;28;20448;-77
2021/04/23 03:30:46;;;;;;;30.02;10.80;;;4.20;70.10;;;;;;5020237;28;20479;-77
2021/04/23 03:33:15;;;;;;;22.75;9.27;;;4.30;67.30;;;;;;5014149;28;20396;-76
2021/04/23 03:35:44;;;;;;;22.08;9.20;;;4.40;65.50;;;;;;5015493;28;20427;-77
2021/04/23 03:38:11;;;;;;;22.60;10.45;;;4.40;64.50;;;;;;5015622;28;20423;-77
2021/04/23 03:40:40;;;;;;;24.63;11.60;;;4.40;65.40;;;;;;5017395;28;20385;-76
2021/04/23 03:43:06;;;;;;;26.60;11.80;;;4.40;65.30;;;;;;5017377;28;20464;-76
2021/04/23 03:45:32;;;;;;;34.20;13.60;;;4.50;63.80;;;;;;5034764;28;20385;-77
2021/04/23 03:47:58;;;;;;;25.67;13.23;;;4.50;63.80;;;;;;5026941;28;20381;-77
2021/04/23 03:50:29;;;;;;;31.58;14.85;;;4.40;64.30;;;;;;5026933;28;20365;-75
2021/04/23 03:52:58;;;;;;;34.50;15.95;;;4.20;64.70;;;;;;5033612;28;20377;-75
2021/04/23 03:55:33;;;;;;;32.40;16.10;;;4.10;68.00;;;;;;5023815;28;20927;-77
2021/04/23 03:58:00;;;;;;;34.83;16.88;;;3.80;69.90;;;;;;5016719;28;20399;-78
2021/04/23 04:00:39;;;;;;;36.33;18.50;;;3.80;72.70;;;;;;5023284;28;20401;-78
2021/04/23 04:03:05;;;;;;;39.55;18.58;;;3.80;74.30;;;;;;5019187;28;20380;-78
2021/04/23 04:05:31;;;;;;;46.50;21.08;;;3.80;74.10;;;;;;5016467;28;20407;-78
2021/04/23 04:07:57;;;;;;;41.75;21.70;;;3.70;74.40;;;;;;5024715;28;20389;-77
2021/04/23 04:10:23;;;;;;;43.50;21.63;;;3.60;76.10;;;;;;5030701;28;20392;-78
2021/04/23 04:12:49;;;;;;;51.30;22.47;;;3.50;77.70;;;;;;5031259;28;20797;-78
2021/04/23 04:15:15;;;;;;;51.80;22.08;;;3.40;78.20;;;;;;5016724;28;20393;-78
2021/04/23 04:17:41;;;;;;;64.57;24.20;;;3.40;80.80;;;;;;5015464;28;20443;-77
2021/04/23 04:20:10;;;;;;;39.57;19.63;;;3.70;78.40;;;;;;5014262;28;20761;-77
2021/04/23 04:22:37;;;;;;;43.85;20.08;;;4.00;72.90;;;;;;5014971;28;20382;-77
2021/04/23 04:25:06;;;;;;;40.95;19.00;;;4.10;69.60;;;;;;5017773;28;20850;-78
2021/04/23 04:27:31;;;;;;;42.85;19.77;;;4.20;67.60;;;;;;5017542;28;20793;-78
2021/04/23 04:29:57;;;;;;;46.72;18.63;;;3.90;68.40;;;;;;5014411;28;20471;-77
2021/04/23 04:32:23;;;;;;;40.33;18.50;;;3.80;72.10;;;;;;5015354;28;20385;-80
2021/04/23 04:34:49;;;;;;;44.40;19.13;;;3.90;71.80;;;;;;5016628;28;20409;-77
2021/04/23 04:37:15;;;;;;;39.20;18.50;;;4.10;70.60;;;;;;5013960;28;20539;-76
2021/04/23 04:39:41;;;;;;;38.00;18.42;;;4.00;71.80;;;;;;5012668;28;20393;-76
2021/04/23 04:42:08;;;;;;;37.90;17.95;;;3.90;71.80;;;;;;5028855;28;20447;-77
2021/04/23 04:44:34;;;;;;;37.83;17.67;;;4.00;71.80;;;;;;5013412;28;20397;-77
2021/04/23 04:47:00;;;;;;;34.70;18.48;;;4.00;69.80;;;;;;5013143;28;20821;-78
2021/04/23 04:49:26;;;;;;;37.10;17.80;;;4.00;72.00;;;;;;5015076;28;20376;-78
2021/04/23 04:51:52;;;;;;;35.95;17.40;;;3.90;70.80;;;;;;5015114;28;20479;-78
2021/04/23 04:54:18;;;;;;;35.35;17.88;;;3.90;71.80;;;;;;5012591;28;20886;-76
2021/04/23 04:56:44;;;;;;;33.65;15.90;;;3.80;73.50;;;;;;5016965;28;20428;-77
2021/04/23 04:59:09;;;;;;;31.60;16.03;;;3.80;75.60;;;;;;5017289;28;20465;-76
2021/04/23 05:01:35;;;;;;;33.97;16.83;;;3.80;76.60;;;;;;5018861;28;20409;-79
2021/04/23 05:04:00;;;;;;;32.72;16.10;;;4.00;74.50;;;;;;5014902;28;20385;-78
2021/04/23 05:06:26;;;;;;;33.80;16.83;;;3.90;74.70;;;;;;5014066;28;20436;-78
2021/04/23 05:08:51;;;;;;;36.17;16.67;;;4.00;74.20;;;;;;5029851;28;20452;-76
2021/04/23 05:11:18;;;;;;;29.05;14.70;;;4.20;71.80;;;;;;5018076;28;20389;-77
2021/04/23 05:13:44;;;;;;;37.85;16.20;;;4.40;67.30;;;;;;5018448;28;20475;-77
2021/04/23 05:16:09;;;;;;;34.63;15.23;;;4.60;65.70;;;;;;5017344;28;20482;-78
2021/04/23 05:18:35;;;;;;;31.57;15.60;;;4.70;63.40;;;;;;5016522;28;20439;-77
2021/04/23 05:21:00;;;;;;;33.15;15.70;;;4.70;62.90;;;;;;5018947;28;20395;-79
2021/04/23 05:23:26;;;;;;;32.15;15.40;;;4.70;63.60;;;;;;5018078;28;20392;-78
2021/04/23 05:25:52;;;;;;;32.77;14.90;;;4.60;65.50;;;;;;5018775;28;20417;-78
2021/04/23 05:28:17;;;;;;;27.10;14.23;;;4.80;61.00;;;;;;5018302;28;20947;-78
2021/04/23 05:30:43;;;;;;;27.40;12.45;;;5.00;57.80;;;;;;5034950;28;20393;-77
2021/04/23 05:33:09;;;;;;;27.75;13.10;;;5.20;54.10;;;;;;5023237;28;20392;-77
2021/04/23 05:35:36;;;;;;;24.75;12.32;;;5.30;54.10;;;;;;5022279;28;20415;-78
2021/04/23 05:38:03;;;;;;;31.33;13.50;;;5.30;54.90;;;;;;5013180;28;20444;-73
2021/04/23 05:40:40;;;;;;;25.08;12.77;;;5.20;54.70;;;;;;5013432;28;20385;-72
2021/04/23 05:43:06;;;;;;;25.88;12.80;;;5.40;53.40;;;;;;5014075;28;20882;-72
2021/04/23 05:45:33;;;;;;;27.67;12.95;;;5.60;51.70;;;;;;5014174;28;20399;-74
2021/04/23 05:47:59;;;;;;;28.65;13.32;;;5.60;50.90;;;;;;5013731;28;20834;-73
2021/04/23 05:50:26;;;;;;;27.85;13.50;;;5.70;50.60;;;;;;5012689;28;20389;-74
2021/04/23 05:52:52;;;;;;;28.05;13.95;;;5.60;52.10;;;;;;5015700;28;20399;-77
2021/04/23 05:55:20;;;;;;;28.02;12.85;;;5.80;50.70;;;;;;5015279;28;20385;-76
2021/04/23 05:57:46;;;;;;;30.48;13.80;;;5.80;49.20;;;;;;5017984;28;20400;-76
2021/04/23 06:00:15;;;;;;;30.17;14.32;;;5.80;50.00;;;;;;5020408;28;20980;-76
2021/04/23 06:02:42;;;;;;;30.30;14.23;;;5.80;52.40;;;;;;5017042;28;20809;-77
2021/04/23 06:05:09;;;;;;;30.05;14.60;;;6.00;49.50;;;;;;5016362;28;20792;-77
2021/04/23 06:07:34;;;;;;;33.13;15.32;;;6.10;48.00;;;;;;5014716;28;20838;-77
2021/04/23 06:10:00;;;;;;;31.08;14.50;;;6.10;49.00;;;;;;5014299;28;20415;-76
2021/04/23 06:12:26;;;;;;;27.20;12.90;;;6.10;49.50;;;;;;5014176;28;20412;-76
2021/04/23 06:14:51;;;;;;;34.27;12.60;;;6.30;46.30;;;;;;5014926;28;20427;-76
2021/04/23 06:17:17;;;;;;;29.10;11.77;;;6.30;47.20;;;;;;5016628;28;20516;-75
2021/04/23 06:19:42;;;;;;;31.57;11.90;;;6.30;47.50;;;;;;5015376;28;20483;-76
2021/04/23 06:22:08;;;;;;;25.53;12.23;;;6.50;46.20;;;;;;5013931;28;20885;-76
2021/04/23 06:24:35;;;;;;;28.25;11.38;;;6.60;45.50;;;;;;5014406;28;20396;-76
2021/04/23 06:27:01;;;;;;;28.03;11.97;;;6.70;43.70;;;;;;5014064;28;20404;-75
2021/04/23 06:29:28;;;;;;;21.15;10.88;;;6.70;43.90;;;;;;5017510;28;20796;-76
2021/04/23 06:31:55;;;;;;;28.43;11.47;;;6.60;44.20;;;;;;5014800;28;20745;-76
2021/04/23 06:34:20;;;;;;;29.58;10.93;;;6.60;45.00;;;;;;5017195;28;20388;-76
2021/04/23 06:36:46;;;;;;;23.92;11.15;;;6.60;44.70;;;;;;5017404;28;20400;-75
2021/04/23 06:39:17;;;;;;;25.90;11.00;;;6.60;46.40;;;;;;5016262;28;20774;-76
2021/04/23 06:41:44;;;;;;;20.77;9.52;;;6.80;44.90;;;;;;5014097;28;20467;-75
2021/04/23 06:44:10;;;;;;;24.20;9.98;;;6.90;41.90;;;;;;5013487;28;20821;-75
2021/04/23 06:46:36;;;;;;;21.30;9.18;;;6.90;41.80;;;;;;5012445;28;20424;-76
2021/04/23 06:49:02;;;;;;;23.83;9.88;;;6.90;43.00;;;;;;5015456;28;20886;-77
2021/04/23 06:51:28;;;;;;;22.27;9.63;;;7.00;42.10;;;;;;5020365;28;20407;-74
2021/04/23 06:53:54;;;;;;;24.20;10.27;;;7.00;40.60;;;;;;5019172;28;20381;-76
2021/04/23 06:56:19;;;;;;;23.15;9.85;;;7.10;41.90;;;;;;5015793;28;20450;-75
2021/04/23 06:58:46;;;;;;;21.15;9.23;;;7.30;41.40;;;;;;5025359;28;20400;-75
2021/04/23 07:01:17;;;;;;;26.98;8.90;;;7.50;39.20;;;;;;5022469;28;20436;-75
2021/04/23 07:03:43;;;;;;;17.88;7.15;;;7.50;38.20;;;;;;5014001;28;20409;-75
2021/04/23 07:06:10;;;;;;;19.80;8.55;;;7.50;35.40;;;;;;5015534;28;20511;-76
2021/04/23 07:08:39;;;;;;;22.92;8.30;;;7.50;37.20;;;;;;5013278;28;20902;-76
2021/04/23 07:11:04;;;;;;;22.42;8.80;;;7.60;36.30;;;;;;5014069;28;20769;-76
2021/04/23 07:13:31;;;;;;;19.95;7.70;;;7.80;37.10;;;;;;5011694;28;20396;-76
2021/04/23 07:15:56;;;;;;;18.30;6.88;;;7.90;35.20;;;;;;5012578;28;20742;-76
2021/04/23 07:18:22;;;;;;;11.13;5.40;;;7.90;33.70;;;;;;5012835;28;20400;-77
2021/04/23 07:20:47;;;;;;;15.07;7.10;;;7.80;32.50;;;;;;5012923;28;20398;-77
2021/04/23 07:23:13;;;;;;;13.57;5.93;;;7.80;34.00;;;;;;5013565;28;20480;-75
2021/04/23 07:25:39;;;;;;;13.85;6.60;;;7.80;32.60;;;;;;5013482;28;20471;-76
2021/04/23 07:28:05;;;;;;;13.70;6.43;;;7.90;32.60;;;;;;5013543;28;20811;-73
2021/04/23 07:30:34;;;;;;;18.63;6.75;;;8.00;31.70;;;;;;5012566;28;20384;-74
2021/04/23 07:33:00;;;;;;;14.95;5.88;;;8.30;30.40;;;;;;5008959;28;20397;-74
2021/04/23 07:35:28;;;;;;;13.70;5.30;;;8.40;29.20;;;;;;5011342;28;20392;-73
2021/04/23 07:37:55;;;;;;;14.65;5.82;;;8.60;27.70;;;;;;5012007;28;20400;-74
2021/04/23 07:40:21;;;;;;;14.68;6.40;;;8.60;27.60;;;;;;5011819;28;20400;-74
2021/04/23 07:42:47;;;;;;;19.17;6.65;;;8.60;29.00;;;;;;5011676;28;20802;-74
2021/04/23 07:45:13;;;;;;;19.27;6.57;;;8.80;28.80;;;;;;5011184;28;20759;-72
2021/04/23 07:47:39;;;;;;;14.40;6.05;;;9.10;26.60;;;;;;5011234;28;20424;-73
2021/04/23 07:50:07;;;;;;;15.57;5.90;;;9.10;25.30;;;;;;5010983;28;20396;-73
2021/04/23 07:52:33;;;;;;;17.60;6.60;;;9.30;24.40;;;;;;5011891;28;20381;-72
2021/04/23 07:55:01;;;;;;;19.40;6.75;;;9.50;24.60;;;;;;5011151;28;20396;-74
2021/04/23 07:57:27;;;;;;;14.98;6.90;;;9.90;21.70;;;;;;5010644;28;20475;-74
2021/04/23 07:59:53;;;;;;;17.38;6.95;;;10.10;22.70;;;;;;5011658;28;20435;-74
2021/04/23 08:02:19;;;;;;;15.18;6.60;;;10.40;21.80;;;;;;5012581;28;20825;-73
2021/04/23 08:04:45;;;;;;;16.63;6.65;;;10.40;19.50;;;;;;5011856;28;20424;-74
2021/04/23 08:07:11;;;;;;;14.55;6.32;;;10.20;19.80;;;;;;5011972;28;20452;-74
2021/04/23 08:09:37;;;;;;;12.13;6.55;;;9.70;21.20;;;;;;5026505;28;20393;-73
2021/04/23 08:12:04;;;;;;;24.00;7.22;;;9.60;21.50;;;;;;5012803;28;20391;-72
2021/04/23 08:14:30;;;;;;;17.60;5.93;;;9.70;21.80;;;;;;5012015;28;20404;-72
2021/04/23 08:16:55;;;;;;;16.02;6.10;;;9.70;20.90;;;;;;5017593;28;20425;-73
2021/04/23 08:19:21;;;;;;;13.63;6.30;;;9.60;20.90;;;;;;5011020;28;20751;-73
2021/04/23 08:21:48;;;;;;;16.80;6.45;;;9.80;20.80;;;;;;5011376;28;20754;-71
2021/04/23 08:24:14;;;;;;;14.88;5.90;;;9.80;21.30;;;;;;5011030;28;20882;-73
2021/04/23 08:26:42;;;;;;;13.38;5.70;;;9.90;20.00;;;;;;5009731;28;20879;-73
2021/04/23 08:29:10;;;;;;;13.68;5.30;;;9.80;20.50;;;;;;5010814;28;20727;-73
2021/04/23 08:31:40;;;;;;;15.85;5.82;;;9.50;19.10;;;;;;5011116;28;20766;-73
2021/04/23 08:34:06;;;;;;;14.88;5.28;;;9.20;20.10;;;;;;5010130;28;20408;-72
2021/04/23 08:36:31;;;;;;;14.95;6.63;;;9.10;22.80;;;;;;5010408;28;20397;-72
2021/04/23 08:38:57;;;;;;;19.58;6.43;;;9.10;23.20;;;;;;5009605;28;20397;-72
2021/04/23 08:41:23;;;;;;;14.00;6.63;;;9.10;23.30;;;;;;5011124;28;20475;-72
2021/04/23 08:43:48;;;;;;;13.60;6.47;;;9.10;23.50;;;;;;5011802;28;20762;-73
2021/04/23 08:46:14;;;;;;;13.83;6.40;;;9.10;23.30;;;;;;5010870;28;20412;-73
2021/04/23 08:48:41;;;;;;;12.87;5.70;;;9.20;22.80;;;;;;5011234;28;20832;-73
2021/04/23 08:51:07;;;;;;;14.02;6.15;;;9.20;21.60;;;;;;5011011;28;20396;-73
2021/04/23 08:53:33;;;;;;;15.98;6.20;;;9.10;21.40;;;;;;5009934;28;20400;-73
2021/04/23 08:55:59;;;;;;;13.30;5.55;;;9.20;21.20;;;;;;5010777;28;20821;-73
2021/04/23 08:58:25;;;;;;;18.47;6.40;;;9.40;20.90;;;;;;5009848;28;20424;-73
2021/04/23 09:00:51;;;;;;;18.80;7.30;;;9.40;21.50;;;;;;5010302;28;21970;-72
2021/04/23 09:03:22;;;;;;;15.50;6.50;;;9.40;20.60;;;;;;5008848;28;20491;-72
2021/04/23 09:06:22;;;;;;;13.02;5.88;;;9.50;20.90;;;;;;5011100;28;20408;-74
2021/04/23 09:08:56;;;;;;;20.52;6.25;;;9.60;21.00;;;;;;5006442;28;20404;-72
2021/04/23 09:11:30;;;;;;;10.93;5.75;;;9.70;20.80;;;;;;5010232;28;20396;-73
2021/04/23 09:14:01;;;;;;;15.23;6.70;;;9.90;20.60;;;;;;5010357;28;20977;-72
2021/04/23 09:16:54;;;;;;;9.98;5.32;;;9.80;19.90;;;;;;5010660;28;20409;-73
2021/04/23 09:19:30;;;;;;;11.23;5.60;;;9.70;20.40;;;;;;4995126;28;20893;-77
2021/04/23 09:21:57;;;;;;;17.10;5.25;;;10.00;19.70;;;;;;5005328;28;21315;-77
2021/04/23 09:24:30;;;;;;;10.90;4.90;;;10.10;18.70;;;;;;5013816;28;20384;-77
2021/04/23 09:26:58;;;;;;;9.07;4.70;;;10.00;18.20;;;;;;5014649;28;20592;-78
2021/04/23 09:29:30;;;;;;;11.52;5.55;;;9.70;18.70;;;;;;5011458;28;20388;-75
2021/04/23 09:32:06;;;;;;;12.20;5.22;;;9.70;19.80;;;;;;5011185;28;20396;-77
2021/04/23 09:34:31;;;;;;;11.90;4.82;;;9.80;19.30;;;;;;5012172;28;20400;-77
2021/04/23 09:36:57;;;;;;;14.38;5.82;;;9.80;19.30;;;;;;5010408;28;20822;-75
2021/04/23 09:39:25;;;;;;;17.52;6.38;;;9.90;19.00;;;;;;5012529;28;20392;-78
2021/04/23 09:42:03;;;;;;;15.95;5.60;;;9.90;19.70;;;;;;5010558;28;20722;-75
2021/04/23 09:44:37;;;;;;;11.30;5.30;;;10.20;18.50;;;;;;5011693;28;20401;-71
2021/04/23 09:47:10;;;;;;;10.77;5.07;;;10.30;17.40;;;;;;5010011;28;20507;-73
2021/04/23 09:49:36;;;;;;;12.93;4.47;;;10.40;17.10;;;;;;5010408;28;20419;-72
2021/04/23 09:52:05;;;;;;;15.63;5.70;;;10.40;17.10;;;;;;5010953;28;20476;-72
2021/04/23 09:54:31;;;;;;;9.85;5.47;;;10.40;17.20;;;;;;5010522;28;20399;-73
2021/04/23 09:56:57;;;;;;;16.23;5.40;;;10.40;18.00;;;;;;5015837;28;20403;-72
2021/04/23 09:59:25;;;;;;;15.35;5.13;;;10.50;17.60;;;;;;5022417;28;20828;-74
2021/04/23 10:01:53;;;;;;;13.95;6.13;;;10.50;17.50;;;;;;5016111;28;20447;-73
2021/04/23 10:04:24;;;;;;;14.98;5.57;;;10.40;18.50;;;;;;5023174;28;20421;-73
2021/04/23 10:07:10;;;;;;;11.30;5.53;;;10.60;18.00;;;;;;5022868;28;20413;-74
2021/04/23 10:09:47;;;;;;;14.63;5.30;;;10.80;17.90;;;;;;5008466;28;20411;-73
2021/04/23 10:12:26;;;;;;;19.27;5.88;;;10.90;16.70;;;;;;5013589;28;20431;-72
2021/04/23 10:14:57;;;;;;;12.17;5.57;;;10.90;17.00;;;;;;5012271;28;20407;-72
2021/04/23 10:17:23;;;;;;;13.10;6.00;;;11.10;17.20;;;;;;5013529;28;20491;-73
2021/04/23 10:19:49;;;;;;;15.95;5.70;;;11.10;16.70;;;;;;5014161;28;20727;-72
2021/04/23 10:22:15;;;;;;;11.02;5.18;;;11.10;16.00;;;;;;5013468;28;20757;-72
2021/04/23 10:24:41;;;;;;;10.75;5.88;;;10.90;15.60;;;;;;5013913;28;20411;-72
2021/04/23 10:27:07;;;;;;;12.65;6.50;;;11.00;17.20;;;;;;5013708;28;20421;-72
2021/04/23 10:29:36;;;;;;;20.13;6.32;;;11.10;15.80;;;;;;5013797;28;20551;-72
2021/04/23 10:32:04;;;;;;;17.00;5.40;;;11.30;15.60;;;;;;5013601;28;20865;-73
2021/04/23 10:34:32;;;;;;;14.32;5.65;;;11.40;15.10;;;;;;5013290;28;20392;-73
2021/04/23 10:36:58;;;;;;;14.77;6.10;;;11.40;15.50;;;;;;5012978;28;20393;-72
2021/04/23 10:39:24;;;;;;;11.07;5.87;;;11.30;15.70;;;;;;5012974;28;20403;-73
2021/04/23 10:41:50;;;;;;;18.67;6.03;;;11.30;15.80;;;;;;5013595;28;20439;-75
2021/04/23 10:44:17;;;;;;;18.87;6.63;;;11.60;15.60;;;;;;5013166;28;20750;-75
2021/04/23 10:46:53;;;;;;;14.90;5.82;;;11.60;15.70;;;;;;5014128;28;20967;-76
2021/04/23 10:49:19;;;;;;;12.82;5.53;;;11.60;15.70;;;;;;5019764;28;20809;-75
2021/04/23 10:51:45;;;;;;;18.03;5.80;;;11.70;16.20;;;;;;5021588;28;20400;-76
2021/04/23 10:54:15;;;;;;;12.10;4.75;;;11.80;15.60;;;;;;5018830;28;20452;-76
2021/04/23 10:56:55;;;;;;;15.23;5.68;;;11.70;15.10;;;;;;5021334;28;20408;-75
2021/04/23 10:59:21;;;;;;;11.30;5.78;;;11.60;15.60;;;;;;5023393;28;20463;-74
2021/04/23 11:01:48;;;;;;;13.32;6.50;;;11.60;15.30;;;;;;5020126;28;20492;-75
2021/04/23 11:04:17;;;;;;;15.45;6.40;;;11.70;15.80;;;;;;5022662;28;20395;-75
2021/04/23 11:06:51;;;;;;;14.38;6.50;;;11.90;15.80;;;;;;5015555;28;20416;-76
2021/04/23 11:09:21;;;;;;;14.10;6.35;;;12.20;14.80;;;;;;5019445;28;20420;-77
2021/04/23 11:12:06;;;;;;;13.57;5.85;;;12.50;13.60;;;;;;5018116;28;20416;-77
2021/04/23 11:14:32;;;;;;;14.70;5.78;;;12.40;13.70;;;;;;5023199;28;20480;-77
2021/04/23 11:17:17;;;;;;;15.60;6.50;;;12.30;13.60;;;;;;5016687;28;20397;-77
2021/04/23 11:19:43;;;;;;;13.70;5.68;;;12.00;14.60;;;;;;5016923;28;20397;-77
2021/04/23 11:22:12;;;;;;;13.70;4.93;;;12.00;14.50;;;;;;5015472;28;20396;-76
2021/04/23 11:24:38;;;;;;;13.88;5.60;;;12.00;13.90;;;;;;5013954;28;20822;-76
2021/04/23 11:27:07;;;;;;;16.77;6.20;;;11.90;13.70;;;;;;5013366;28;20440;-77
2021/04/23 11:29:48;;;;;;;13.32;5.63;;;12.10;13.60;;;;;;5015512;28;20400;-78
2021/04/23 11:32:15;;;;;;;13.38;6.07;;;12.00;13.30;;;;;;5022726;28;20860;-77
2021/04/23 11:34:42;;;;;;;15.02;5.35;;;12.00;14.40;;;;;;5032555;28;20411;-76
2021/04/23 11:37:13;;;;;;;10.93;5.60;;;11.90;13.80;;;;;;5031573;28;20933;-78
2021/04/23 11:39:43;;;;;;;13.23;5.73;;;12.00;13.70;;;;;;5018718;28;20404;-75
2021/04/23 11:42:15;;;;;;;18.38;6.07;;;12.00;14.30;;;;;;5018016;28;20850;-75
2021/04/23 11:44:49;;;;;;;19.40;6.80;;;12.20;14.10;;;;;;5016377;28;20916;-76
2021/04/23 11:47:25;;;;;;;11.55;5.20;;;12.40;13.70;;;;;;5014866;28;20480;-76
2021/04/23 11:50:08;;;;;;;16.20;5.97;;;12.20;13.40;;;;;;5015156;28;20912;-75
2021/04/23 11:52:34;;;;;;;17.20;6.50;;;12.20;13.80;;;;;;5017784;28;20392;-75
2021/04/23 11:55:07;;;;;;;14.95;6.68;;;12.10;13.80;;;;;;5015397;28;20396;-75
2021/04/23 11:57:33;;;;;;;17.60;6.65;;;12.20;14.20;;;;;;5013805;28;20393;-75
2021/04/23 12:00:13;;;;;;;21.23;6.90;;;12.40;12.80;;;;;;5013801;28;20455;-75
2021/04/23 12:02:54;;;;;;;18.13;7.18;;;12.40;13.40;;;;;;5015349;28;20404;-75
2021/04/23 12:05:36;;;;;;;18.50;7.10;;;12.50;12.60;;;;;;5015737;28;20405;-77
2021/04/23 12:08:21;;;;;;;16.10;6.13;;;12.70;12.40;;;;;;5021545;28;20392;-76
2021/04/23 12:11:02;;;;;;;17.95;5.38;;;13.00;12.60;;;;;;5017925;28;20420;-76
2021/04/23 12:13:34;;;;;;;12.77;5.93;;;12.90;12.20;;;;;;5019621;28;20416;-76
2021/04/23 12:16:02;;;;;;;12.10;5.70;;;12.70;12.60;;;;;;5020374;28;20893;-76
2021/04/23 12:18:29;;;;;;;18.02;6.10;;;12.60;12.30;;;;;;5019100;28;20457;-76
2021/04/23 12:20:57;;;;;;;15.77;6.30;;;12.50;13.60;;;;;;5013564;28;20400;-73
2021/04/23 12:23:27;;;;;;;17.33;5.78;;;12.60;13.70;;;;;;5006126;28;20401;-74
2021/04/23 12:25:55;;;;;;;18.40;6.60;;;12.50;13.50;;;;;;5013486;28;20482;-74
2021/04/23 12:28:23;;;;;;;14.68;6.35;;;12.80;13.70;;;;;;5012434;28;20719;-74
2021/04/23 12:31:04;;;;;;;13.80;5.70;;;12.90;13.10;;;;;;5011591;28;20905;-74
2021/04/23 12:33:40;;;;;;;11.82;5.47;;;13.00;12.70;;;;;;5010634;28;20408;-73
2021/04/23 12:36:18;;;;;;;14.37;6.27;;;13.00;11.90;;;;;;5011350;28;20766;-74
2021/04/23 12:38:47;;;;;;;18.65;6.70;;;12.70;12.50;;;;;;5011065;28;20401;-73
2021/04/23 12:41:38;;;;;;;22.45;7.80;;;12.90;13.00;;;;;;5010907;28;20411;-74
2021/04/23 12:44:06;;;;;;;18.00;6.80;;;13.00;12.40;;;;;;5003493;28;20480;-73
2021/04/23 12:46:37;;;;;;;12.77;5.80;;;13.10;12.30;;;;;;5010557;28;20571;-73